AGROMETEOROLOŠKI PORTAL
Vinorodna pokrajina

Temelj dobrega kmetovanja.

Pregled podatkov za lokacijo Kasaze (Mirosan), meteorološka postaja 516313

Pregled senzorjev na lokaciji

ID Ime Zadnja
vrednost
Datum in čas
meritve
(lokalni čas)
Tip
senzorja
6969 Omočenost lista (1,5 m) (U) 10 U 16.4.2024 15:00 A730WET
7384 Padavine (mm) 0 mm 16.4.2024 15:00 Generic 0.1 mm
6968 Relativna zračna vlaga (2 m) (%RH) 98 %RH 16.4.2024 15:00 50YA
6967 Temperatura (2 m) (°C) 0,5 °C 16.4.2024 15:00 50YA
6977 Hitrost vetra (3 m) (km/h) 5 km/h 16.4.2024 15:00 Generic 200 km/h

Pregled podatkov zadnjih 24 ur

Zap.
št.
Datum in čas
(lokalni čas)
Kasaze (Mirosan)
Omočenost
lista
(1,5
m)
Padavine Relativna
zračna
vlaga
(2
m)
Temperatura
(2
m)
Hitrost
vetra
(3
m)
1 16.4.2024 15:00 10 0 97,8 0,5 4,8
2 16.4.2024 14:30 10 0,9 96,2 1,3 5,7
3 16.4.2024 14:00 10 1,5 94,7 2,2 9,6
4 16.4.2024 13:30 10 1,7 95,8 2,9 11,7
5 16.4.2024 13:00 10 1,4 92,8 4,6 11,9
6 16.4.2024 12:30 10 0,4 89,3 5,7 14,5
7 16.4.2024 12:00 10 0 87,4 6,5 17,2
8 16.4.2024 11:30 10 0 81,1 7,8 16,3
9 16.4.2024 11:00 2 0 76,1 9,1 24
10 16.4.2024 10:30 1 0 80,3 12,8 17,1
11 16.4.2024 10:00 1 0 80,7 13,3 9,8
12 16.4.2024 09:30 1 0 80,5 13,4 12,8
13 16.4.2024 09:00 1 0 79,6 13,5 8,9
14 16.4.2024 08:30 1 0 77,4 13,5 6,1
15 16.4.2024 08:00 0 0 76 13,3 4,8
16 16.4.2024 07:30 1 0 77,9 12,9 4,5
17 16.4.2024 07:00 0 0 75,3 13,1 2,7
18 16.4.2024 06:30 0 0 70,3 13,7 3,3
19 16.4.2024 06:00 0 0 73,7 13,1 2,9
20 16.4.2024 05:30 5 0 80,3 11,9 4
21 16.4.2024 05:00 3 0 77,9 12,2 2,4
22 16.4.2024 04:30 2 0 75,8 12,7 3,1
23 16.4.2024 04:00 0 0 67,9 14,3 2,3
24 16.4.2024 03:30 0 0 56,9 16,2 6,2
25 16.4.2024 03:00 0 0 54,1 17 10,8
26 16.4.2024 02:30 0 0 53 17,3 13,4
27 16.4.2024 02:00 0 0 52,8 17,4 11,3
28 16.4.2024 01:30 0 0 51,2 17,7 11,6
29 16.4.2024 01:00 0 0 50,1 17,9 14,4
30 16.4.2024 00:30 0 0 50,2 17,9 13,3
31 16.4.2024 00:00 0 0 54,8 16,7 5,5
32 15.4.2024 23:30 0 0 55 16,5 4,6
33 15.4.2024 23:00 0 0 49,6 17,8 5,1
34 15.4.2024 22:30 0 0 46,7 18,7 7,3
35 15.4.2024 22:00 0 0 46 19 10,4
36 15.4.2024 21:30 0 0 46,7 19 6,7
37 15.4.2024 21:00 0 0 42,8 20,2 11,7
38 15.4.2024 20:30 0 0 42,5 20,5 19,7
39 15.4.2024 20:00 0 0 44,7 20,6 11,4
40 15.4.2024 19:30 0 0 45,8 21,2 13,8
41 15.4.2024 19:00 0 0 44,8 21,9 14,2
42 15.4.2024 18:30 0 0 43,5 22,5 10,5
43 15.4.2024 18:00 0 0 42,7 22,9 12,2
44 15.4.2024 17:30 0 0 40,8 23,4 17,4
45 15.4.2024 17:00 0 0 38,7 23,9 17,6
46 15.4.2024 16:30 0 0 37,3 24,8 18,4